Pomona, IL (62975)

1:41 PM CST on February 06, 2016 (GMT -0600)
Grand Tower Island | | Change Station
CLOSE
Current Station
Personal Weather Station
Location: Grand Tower, IL
Elevation: 344 ft
Nearby Weather Stations

Elev 344 ft 37.59 °N, 89.49 °W | Updated 40 minutes ago

Clear
Clear
55.2 °F
Feels Like 55.2 °F
N
4.0
Wind Variable Wind from South
Gusts 8.0 mph

Today
High -- | Low -- °F
--% Chance of Precip.
Yesterday
High -- | Low -- °F
Precip. -- in
Pressure 30.29 in
Visibility 10.0 miles
Clouds Clear
Dew Point 30 °F
Humidity 39%
Rainfall 0.00 in
Snow Depth Not available.
6:57 AM 5:26 PM
Waning Crescent, 4% visible
METAR KMDH 061852Z AUTO VRB06KT 10SM CLR 12/M08 A3028 RMK AO2 SLP257 T01221078
Pressure 30.29 in
Visibility 10.0 miles
Clouds Clear
Dew Point 30 °F
Humidity 39%
Rainfall 0.00 in
Snow Depth Not available.
6:57 AM 5:26 PM
Waning Crescent, 4% visible
METAR KMDH 061852Z AUTO VRB06KT 10SM CLR 12/M08 A3028 RMK AO2 SLP257 T01221078

10-Day Weather Forecast

Almanac

Astronomy

Feb. 06, 2016 Rise Set
Actual Time
Civil Twilight
Nautical Twilight
Astronomical Twilight
Moon
Length of Visible Light
Length of Day
Tomorrow will be .
, % of the Moon is Illuminated

Today's Extremes

State Highs State Lows

Community

WunderPhotos

Upload Photos

1,891,037 photos uploaded!

WunderBlog® & News

Nearby

Air Quality

  Air Quality AQ Index Pollutant
Not available.

Snow Depth

Station Depth Elevation

Earthquake Activity

City Distance Mag. Time & Date
Minimum magnitude displayed is 2.5.

Coastal Water Temperatures

Place Temperature

Stations

Nearby Weather Stations

Station Location Temp. Windchill Dew Point Humidity Wind Precip. Elev Updated Type
                   

Watches & Warnings

There are currently no watches in effect.